sensor_id;sensor_type;location;lat;lon;timestamp;P1;durP1;ratioP1;P2;durP2;ratioP2
68256;SDS011;55069;51.568;4.656;2023-08-31T00:00:15;12.02;;;7.35;;
68256;SDS011;55069;51.568;4.656;2023-08-31T00:02:41;16.05;;;7.32;;
68256;SDS011;55069;51.568;4.656;2023-08-31T00:05:07;11.93;;;6.80;;
68256;SDS011;55069;51.568;4.656;2023-08-31T00:07:33;9.82;;;7.18;;
68256;SDS011;55069;51.568;4.656;2023-08-31T00:09:58;12.43;;;6.80;;
68256;SDS011;55069;51.568;4.656;2023-08-31T00:12:24;9.35;;;6.78;;
68256;SDS011;55069;51.568;4.656;2023-08-31T00:14:50;15.18;;;7.65;;
68256;SDS011;55069;51.568;4.656;2023-08-31T00:17:16;9.60;;;6.20;;
68256;SDS011;55069;51.568;4.656;2023-08-31T00:19:42;12.73;;;7.65;;
68256;SDS011;55069;51.568;4.656;2023-08-31T00:22:08;11.98;;;7.65;;
68256;SDS011;55069;51.568;4.656;2023-08-31T00:24:34;10.77;;;7.43;;
68256;SDS011;55069;51.568;4.656;2023-08-31T00:27:02;13.57;;;8.07;;
68256;SDS011;55069;51.568;4.656;2023-08-31T00:29:28;15.15;;;9.27;;
68256;SDS011;55069;51.568;4.656;2023-08-31T00:31:55;18.57;;;9.23;;
68256;SDS011;55069;51.568;4.656;2023-08-31T00:34:21;12.48;;;7.57;;
68256;SDS011;55069;51.568;4.656;2023-08-31T00:36:47;15.45;;;9.10;;
68256;SDS011;55069;51.568;4.656;2023-08-31T00:39:13;15.05;;;8.98;;
68256;SDS011;55069;51.568;4.656;2023-08-31T00:41:41;13.57;;;8.47;;
68256;SDS011;55069;51.568;4.656;2023-08-31T00:44:06;18.55;;;9.70;;
68256;SDS011;55069;51.568;4.656;2023-08-31T00:46:32;14.97;;;8.80;;
68256;SDS011;55069;51.568;4.656;2023-08-31T00:48:59;17.50;;;9.68;;
68256;SDS011;55069;51.568;4.656;2023-08-31T00:51:25;17.23;;;8.85;;
68256;SDS011;55069;51.568;4.656;2023-08-31T00:53:52;14.18;;;8.57;;
68256;SDS011;55069;51.568;4.656;2023-08-31T00:56:20;17.83;;;9.87;;
68256;SDS011;55069;51.568;4.656;2023-08-31T00:58:46;16.80;;;9.05;;
68256;SDS011;55069;51.568;4.656;2023-08-31T01:01:22;15.77;;;9.00;;
68256;SDS011;55069;51.568;4.656;2023-08-31T01:12:36;14.88;;;8.57;;
68256;SDS011;55069;51.568;4.656;2023-08-31T01:15:05;15.27;;;8.98;;
68256;SDS011;55069;51.568;4.656;2023-08-31T01:17:50;15.27;;;9.05;;
68256;SDS011;55069;51.568;4.656;2023-08-31T01:20:22;14.00;;;8.53;;
68256;SDS011;55069;51.568;4.656;2023-08-31T01:23:00;12.38;;;7.75;;
68256;SDS011;55069;51.568;4.656;2023-08-31T01:25:29;12.10;;;7.43;;
68256;SDS011;55069;51.568;4.656;2023-08-31T01:27:56;15.38;;;7.80;;
68256;SDS011;55069;51.568;4.656;2023-08-31T01:30:21;12.45;;;8.00;;
68256;SDS011;55069;51.568;4.656;2023-08-31T01:32:49;13.50;;;8.02;;
68256;SDS011;55069;51.568;4.656;2023-08-31T01:35:18;13.15;;;8.75;;
68256;SDS011;55069;51.568;4.656;2023-08-31T01:37:50;18.20;;;9.13;;
68256;SDS011;55069;51.568;4.656;2023-08-31T01:40:20;14.70;;;8.60;;
68256;SDS011;55069;51.568;4.656;2023-08-31T01:42:49;12.95;;;8.25;;
68256;SDS011;55069;51.568;4.656;2023-08-31T01:45:18;12.68;;;8.10;;
68256;SDS011;55069;51.568;4.656;2023-08-31T01:47:46;14.50;;;8.18;;
68256;SDS011;55069;51.568;4.656;2023-08-31T01:50:12;14.40;;;8.80;;
68256;SDS011;55069;51.568;4.656;2023-08-31T01:52:38;17.13;;;9.05;;
68256;SDS011;55069;51.568;4.656;2023-08-31T01:55:05;14.68;;;9.98;;
68256;SDS011;55069;51.568;4.656;2023-08-31T01:57:31;15.35;;;9.73;;
68256;SDS011;55069;51.568;4.656;2023-08-31T02:00:11;14.40;;;8.20;;
68256;SDS011;55069;51.568;4.656;2023-08-31T02:02:40;12.63;;;9.15;;
68256;SDS011;55069;51.568;4.656;2023-08-31T02:05:07;14.38;;;8.90;;
68256;SDS011;55069;51.568;4.656;2023-08-31T02:07:33;14.98;;;10.38;;
68256;SDS011;55069;51.568;4.656;2023-08-31T02:09:58;14.73;;;9.77;;
68256;SDS011;55069;51.568;4.656;2023-08-31T02:12:24;17.00;;;10.95;;
68256;SDS011;55069;51.568;4.656;2023-08-31T02:14:50;18.15;;;9.52;;
68256;SDS011;55069;51.568;4.656;2023-08-31T02:17:15;12.83;;;8.97;;
68256;SDS011;55069;51.568;4.656;2023-08-31T02:19:41;18.70;;;10.68;;
68256;SDS011;55069;51.568;4.656;2023-08-31T02:22:06;18.40;;;11.53;;
68256;SDS011;55069;51.568;4.656;2023-08-31T02:24:32;18.40;;;11.23;;
68256;SDS011;55069;51.568;4.656;2023-08-31T02:26:57;15.60;;;10.77;;
68256;SDS011;55069;51.568;4.656;2023-08-31T02:29:25;18.23;;;11.93;;
68256;SDS011;55069;51.568;4.656;2023-08-31T02:31:50;17.10;;;9.95;;
68256;SDS011;55069;51.568;4.656;2023-08-31T02:34:16;21.27;;;10.80;;
68256;SDS011;55069;51.568;4.656;2023-08-31T02:36:42;16.57;;;11.17;;
68256;SDS011;55069;51.568;4.656;2023-08-31T02:39:09;15.15;;;9.68;;
68256;SDS011;55069;51.568;4.656;2023-08-31T02:41:35;15.80;;;10.25;;
68256;SDS011;55069;51.568;4.656;2023-08-31T02:44:03;18.15;;;10.60;;
68256;SDS011;55069;51.568;4.656;2023-08-31T02:46:30;17.02;;;13.05;;
68256;SDS011;55069;51.568;4.656;2023-08-31T02:48:56;14.43;;;10.37;;
68256;SDS011;55069;51.568;4.656;2023-08-31T02:51:21;18.33;;;12.10;;
68256;SDS011;55069;51.568;4.656;2023-08-31T02:53:47;20.88;;;10.68;;
68256;SDS011;55069;51.568;4.656;2023-08-31T02:56:12;21.47;;;12.37;;
68256;SDS011;55069;51.568;4.656;2023-08-31T02:58:38;18.33;;;12.03;;
68256;SDS011;55069;51.568;4.656;2023-08-31T03:01:07;23.52;;;11.95;;
68256;SDS011;55069;51.568;4.656;2023-08-31T03:03:39;19.67;;;12.50;;
68256;SDS011;55069;51.568;4.656;2023-08-31T03:06:05;19.05;;;11.07;;
68256;SDS011;55069;51.568;4.656;2023-08-31T03:08:33;23.08;;;12.52;;
68256;SDS011;55069;51.568;4.656;2023-08-31T03:10:59;24.83;;;13.90;;
68256;SDS011;55069;51.568;4.656;2023-08-31T03:13:24;14.55;;;10.45;;
68256;SDS011;55069;51.568;4.656;2023-08-31T03:15:50;18.97;;;12.73;;
68256;SDS011;55069;51.568;4.656;2023-08-31T03:18:15;16.70;;;11.87;;
68256;SDS011;55069;51.568;4.656;2023-08-31T03:20:41;19.08;;;12.50;;
68256;SDS011;55069;51.568;4.656;2023-08-31T03:23:06;20.50;;;11.27;;
68256;SDS011;55069;51.568;4.656;2023-08-31T03:25:32;15.17;;;10.23;;
68256;SDS011;55069;51.568;4.656;2023-08-31T03:27:57;19.15;;;11.10;;
68256;SDS011;55069;51.568;4.656;2023-08-31T03:30:23;15.00;;;11.43;;
68256;SDS011;55069;51.568;4.656;2023-08-31T03:32:49;16.17;;;9.60;;
68256;SDS011;55069;51.568;4.656;2023-08-31T03:35:14;21.63;;;11.48;;
68256;SDS011;55069;51.568;4.656;2023-08-31T03:37:40;19.77;;;11.87;;
68256;SDS011;55069;51.568;4.656;2023-08-31T03:40:05;22.57;;;12.40;;
68256;SDS011;55069;51.568;4.656;2023-08-31T03:42:33;22.83;;;12.65;;
68256;SDS011;55069;51.568;4.656;2023-08-31T03:44:59;18.73;;;11.07;;
68256;SDS011;55069;51.568;4.656;2023-08-31T03:47:24;23.30;;;13.23;;
68256;SDS011;55069;51.568;4.656;2023-08-31T03:49:50;19.25;;;12.45;;
68256;SDS011;55069;51.568;4.656;2023-08-31T03:52:16;19.83;;;12.80;;
68256;SDS011;55069;51.568;4.656;2023-08-31T03:54:41;20.87;;;11.00;;
68256;SDS011;55069;51.568;4.656;2023-08-31T03:57:07;18.52;;;11.90;;
68256;SDS011;55069;51.568;4.656;2023-08-31T03:59:32;19.47;;;13.10;;
68256;SDS011;55069;51.568;4.656;2023-08-31T04:01:58;17.93;;;11.20;;
68256;SDS011;55069;51.568;4.656;2023-08-31T04:04:26;19.65;;;12.15;;
68256;SDS011;55069;51.568;4.656;2023-08-31T04:06:51;19.33;;;10.27;;
68256;SDS011;55069;51.568;4.656;2023-08-31T04:09:17;20.20;;;9.75;;
68256;SDS011;55069;51.568;4.656;2023-08-31T04:11:44;20.80;;;10.53;;
68256;SDS011;55069;51.568;4.656;2023-08-31T04:14:09;16.95;;;10.55;;
68256;SDS011;55069;51.568;4.656;2023-08-31T04:16:35;20.57;;;11.07;;
68256;SDS011;55069;51.568;4.656;2023-08-31T04:19:00;18.90;;;11.07;;
68256;SDS011;55069;51.568;4.656;2023-08-31T04:21:26;21.33;;;10.25;;
68256;SDS011;55069;51.568;4.656;2023-08-31T04:23:51;17.50;;;9.67;;
68256;SDS011;55069;51.568;4.656;2023-08-31T04:26:17;18.83;;;11.40;;
68256;SDS011;55069;51.568;4.656;2023-08-31T04:28:43;18.30;;;11.52;;
68256;SDS011;55069;51.568;4.656;2023-08-31T04:31:08;20.38;;;11.18;;
68256;SDS011;55069;51.568;4.656;2023-08-31T04:33:34;17.42;;;10.88;;
68256;SDS011;55069;51.568;4.656;2023-08-31T04:36:01;20.70;;;10.43;;
68256;SDS011;55069;51.568;4.656;2023-08-31T04:38:28;20.55;;;10.43;;
68256;SDS011;55069;51.568;4.656;2023-08-31T04:40:54;23.13;;;13.05;;
68256;SDS011;55069;51.568;4.656;2023-08-31T04:43:23;16.53;;;10.67;;
68256;SDS011;55069;51.568;4.656;2023-08-31T04:45:49;23.50;;;12.07;;
68256;SDS011;55069;51.568;4.656;2023-08-31T04:48:16;19.35;;;9.95;;
68256;SDS011;55069;51.568;4.656;2023-08-31T04:50:41;18.07;;;10.10;;
68256;SDS011;55069;51.568;4.656;2023-08-31T04:53:07;25.13;;;11.57;;
68256;SDS011;55069;51.568;4.656;2023-08-31T04:55:32;20.07;;;11.73;;
68256;SDS011;55069;51.568;4.656;2023-08-31T04:57:58;18.27;;;11.13;;
68256;SDS011;55069;51.568;4.656;2023-08-31T05:00:23;19.00;;;10.83;;
68256;SDS011;55069;51.568;4.656;2023-08-31T05:02:49;24.13;;;13.40;;
68256;SDS011;55069;51.568;4.656;2023-08-31T05:05:14;19.95;;;12.07;;
68256;SDS011;55069;51.568;4.656;2023-08-31T05:07:40;20.53;;;11.93;;
68256;SDS011;55069;51.568;4.656;2023-08-31T05:10:06;19.70;;;11.67;;
68256;SDS011;55069;51.568;4.656;2023-08-31T05:12:32;27.35;;;12.95;;
68256;SDS011;55069;51.568;4.656;2023-08-31T05:14:57;28.30;;;12.83;;
68256;SDS011;55069;51.568;4.656;2023-08-31T05:17:23;19.85;;;11.88;;
68256;SDS011;55069;51.568;4.656;2023-08-31T05:19:48;21.57;;;11.27;;
68256;SDS011;55069;51.568;4.656;2023-08-31T05:22:15;24.08;;;11.50;;
68256;SDS011;55069;51.568;4.656;2023-08-31T05:24:41;24.47;;;14.17;;
68256;SDS011;55069;51.568;4.656;2023-08-31T05:27:06;23.57;;;12.60;;
68256;SDS011;55069;51.568;4.656;2023-08-31T05:29:32;22.33;;;11.88;;
68256;SDS011;55069;51.568;4.656;2023-08-31T05:31:57;24.27;;;13.10;;
68256;SDS011;55069;51.568;4.656;2023-08-31T05:34:24;34.47;;;15.30;;
68256;SDS011;55069;51.568;4.656;2023-08-31T05:36:50;25.90;;;11.95;;
68256;SDS011;55069;51.568;4.656;2023-08-31T05:39:16;25.60;;;13.43;;
68256;SDS011;55069;51.568;4.656;2023-08-31T05:41:42;22.60;;;11.43;;
68256;SDS011;55069;51.568;4.656;2023-08-31T05:44:08;23.48;;;12.10;;
68256;SDS011;55069;51.568;4.656;2023-08-31T05:46:34;24.80;;;13.10;;
68256;SDS011;55069;51.568;4.656;2023-08-31T05:49:00;19.13;;;10.53;;
68256;SDS011;55069;51.568;4.656;2023-08-31T05:51:26;21.37;;;13.27;;
68256;SDS011;55069;51.568;4.656;2023-08-31T05:53:51;23.45;;;13.25;;
68256;SDS011;55069;51.568;4.656;2023-08-31T05:56:18;23.57;;;11.77;;
68256;SDS011;55069;51.568;4.656;2023-08-31T05:58:44;29.85;;;14.10;;
68256;SDS011;55069;51.568;4.656;2023-08-31T06:01:10;28.65;;;14.00;;
68256;SDS011;55069;51.568;4.656;2023-08-31T06:03:37;25.30;;;13.77;;
68256;SDS011;55069;51.568;4.656;2023-08-31T06:06:02;27.55;;;13.38;;
68256;SDS011;55069;51.568;4.656;2023-08-31T06:08:28;28.43;;;15.03;;
68256;SDS011;55069;51.568;4.656;2023-08-31T06:10:55;23.48;;;13.98;;
68256;SDS011;55069;51.568;4.656;2023-08-31T06:13:21;25.17;;;15.70;;
68256;SDS011;55069;51.568;4.656;2023-08-31T06:15:46;31.10;;;15.97;;
68256;SDS011;55069;51.568;4.656;2023-08-31T06:18:12;30.03;;;15.67;;
68256;SDS011;55069;51.568;4.656;2023-08-31T06:20:38;29.10;;;15.13;;
68256;SDS011;55069;51.568;4.656;2023-08-31T06:23:03;29.27;;;15.70;;
68256;SDS011;55069;51.568;4.656;2023-08-31T06:25:29;29.90;;;14.73;;
68256;SDS011;55069;51.568;4.656;2023-08-31T06:27:54;23.17;;;13.85;;
68256;SDS011;55069;51.568;4.656;2023-08-31T06:30:20;26.13;;;13.03;;
68256;SDS011;55069;51.568;4.656;2023-08-31T06:32:46;29.93;;;15.23;;
68256;SDS011;55069;51.568;4.656;2023-08-31T06:35:13;29.63;;;15.02;;
68256;SDS011;55069;51.568;4.656;2023-08-31T06:37:40;26.90;;;14.50;;
68256;SDS011;55069;51.568;4.656;2023-08-31T06:40:07;41.40;;;16.90;;
68256;SDS011;55069;51.568;4.656;2023-08-31T06:42:36;32.53;;;16.13;;
68256;SDS011;55069;51.568;4.656;2023-08-31T06:45:05;31.20;;;15.87;;
68256;SDS011;55069;51.568;4.656;2023-08-31T06:47:32;37.60;;;17.48;;
68256;SDS011;55069;51.568;4.656;2023-08-31T06:49:58;29.27;;;17.08;;
68256;SDS011;55069;51.568;4.656;2023-08-31T06:52:24;30.50;;;16.77;;
68256;SDS011;55069;51.568;4.656;2023-08-31T06:54:53;35.77;;;18.13;;
68256;SDS011;55069;51.568;4.656;2023-08-31T06:57:21;34.97;;;17.75;;
68256;SDS011;55069;51.568;4.656;2023-08-31T06:59:47;32.13;;;17.58;;
68256;SDS011;55069;51.568;4.656;2023-08-31T07:02:13;32.20;;;16.90;;
68256;SDS011;55069;51.568;4.656;2023-08-31T07:04:39;32.63;;;15.40;;
68256;SDS011;55069;51.568;4.656;2023-08-31T07:07:05;35.35;;;16.65;;
68256;SDS011;55069;51.568;4.656;2023-08-31T07:09:30;37.73;;;15.30;;
68256;SDS011;55069;51.568;4.656;2023-08-31T07:11:56;27.98;;;14.73;;
68256;SDS011;55069;51.568;4.656;2023-08-31T07:14:23;27.53;;;14.50;;
68256;SDS011;55069;51.568;4.656;2023-08-31T07:16:49;32.83;;;15.27;;
68256;SDS011;55069;51.568;4.656;2023-08-31T07:19:15;27.20;;;15.50;;
68256;SDS011;55069;51.568;4.656;2023-08-31T07:21:41;29.37;;;15.00;;
68256;SDS011;55069;51.568;4.656;2023-08-31T07:24:06;26.42;;;13.93;;
68256;SDS011;55069;51.568;4.656;2023-08-31T07:26:32;21.30;;;11.30;;
68256;SDS011;55069;51.568;4.656;2023-08-31T07:28:57;21.88;;;12.15;;
68256;SDS011;55069;51.568;4.656;2023-08-31T07:31:23;23.23;;;14.02;;
68256;SDS011;55069;51.568;4.656;2023-08-31T07:33:48;25.03;;;13.17;;
68256;SDS011;55069;51.568;4.656;2023-08-31T07:36:14;23.17;;;13.57;;
68256;SDS011;55069;51.568;4.656;2023-08-31T07:38:40;27.33;;;12.35;;
68256;SDS011;55069;51.568;4.656;2023-08-31T07:41:06;23.93;;;12.67;;
68256;SDS011;55069;51.568;4.656;2023-08-31T07:43:31;22.23;;;11.70;;
68256;SDS011;55069;51.568;4.656;2023-08-31T07:45:57;18.50;;;10.37;;
68256;SDS011;55069;51.568;4.656;2023-08-31T07:48:22;24.93;;;11.80;;
68256;SDS011;55069;51.568;4.656;2023-08-31T07:50:48;20.85;;;12.57;;
68256;SDS011;55069;51.568;4.656;2023-08-31T07:53:14;24.60;;;12.37;;
68256;SDS011;55069;51.568;4.656;2023-08-31T07:55:39;21.77;;;12.07;;
68256;SDS011;55069;51.568;4.656;2023-08-31T07:58:05;20.27;;;11.98;;
68256;SDS011;55069;51.568;4.656;2023-08-31T08:00:31;23.33;;;13.40;;
68256;SDS011;55069;51.568;4.656;2023-08-31T08:02:57;22.47;;;13.13;;
68256;SDS011;55069;51.568;4.656;2023-08-31T08:05:22;21.33;;;12.00;;
68256;SDS011;55069;51.568;4.656;2023-08-31T08:07:48;17.90;;;11.40;;
68256;SDS011;55069;51.568;4.656;2023-08-31T08:10:13;21.33;;;11.83;;
68256;SDS011;55069;51.568;4.656;2023-08-31T08:12:40;21.90;;;11.77;;
68256;SDS011;55069;51.568;4.656;2023-08-31T08:15:09;19.88;;;10.77;;
68256;SDS011;55069;51.568;4.656;2023-08-31T08:17:35;19.20;;;10.77;;
68256;SDS011;55069;51.568;4.656;2023-08-31T08:20:01;20.35;;;10.40;;
68256;SDS011;55069;51.568;4.656;2023-08-31T08:22:28;23.30;;;11.07;;
68256;SDS011;55069;51.568;4.656;2023-08-31T08:24:53;19.92;;;9.85;;
68256;SDS011;55069;51.568;4.656;2023-08-31T08:27:19;15.17;;;9.53;;
68256;SDS011;55069;51.568;4.656;2023-08-31T08:29:45;22.42;;;10.48;;
68256;SDS011;55069;51.568;4.656;2023-08-31T08:32:12;17.15;;;8.75;;
68256;SDS011;55069;51.568;4.656;2023-08-31T08:34:38;13.20;;;7.67;;
68256;SDS011;55069;51.568;4.656;2023-08-31T08:37:03;15.00;;;7.13;;
68256;SDS011;55069;51.568;4.656;2023-08-31T08:39:29;10.77;;;6.40;;
68256;SDS011;55069;51.568;4.656;2023-08-31T08:41:56;15.77;;;6.70;;
68256;SDS011;55069;51.568;4.656;2023-08-31T08:44:24;11.85;;;6.22;;
68256;SDS011;55069;51.568;4.656;2023-08-31T08:46:53;9.73;;;5.57;;
68256;SDS011;55069;51.568;4.656;2023-08-31T08:49:21;13.52;;;5.47;;
68256;SDS011;55069;51.568;4.656;2023-08-31T08:51:49;13.13;;;5.57;;
68256;SDS011;55069;51.568;4.656;2023-08-31T08:54:16;18.67;;;5.53;;
68256;SDS011;55069;51.568;4.656;2023-08-31T08:56:43;11.52;;;4.97;;
68256;SDS011;55069;51.568;4.656;2023-08-31T08:59:09;10.02;;;5.18;;
68256;SDS011;55069;51.568;4.656;2023-08-31T09:01:38;10.05;;;4.28;;
68256;SDS011;55069;51.568;4.656;2023-08-31T09:04:04;9.23;;;3.95;;
68256;SDS011;55069;51.568;4.656;2023-08-31T09:06:31;13.60;;;5.07;;
68256;SDS011;55069;51.568;4.656;2023-08-31T09:08:57;11.48;;;4.35;;
68256;SDS011;55069;51.568;4.656;2023-08-31T09:11:24;10.53;;;4.90;;
68256;SDS011;55069;51.568;4.656;2023-08-31T09:13:50;12.00;;;4.85;;
68256;SDS011;55069;51.568;4.656;2023-08-31T09:18:53;12.13;;;4.85;;
68256;SDS011;55069;51.568;4.656;2023-08-31T09:21:19;13.53;;;5.43;;
68256;SDS011;55069;51.568;4.656;2023-08-31T09:23:57;10.60;;;4.90;;
68256;SDS011;55069;51.568;4.656;2023-08-31T09:26:23;7.40;;;3.85;;
68256;SDS011;55069;51.568;4.656;2023-08-31T09:28:49;8.57;;;3.63;;
68256;SDS011;55069;51.568;4.656;2023-08-31T09:31:14;9.40;;;3.60;;
68256;SDS011;55069;51.568;4.656;2023-08-31T09:33:42;6.70;;;3.30;;
68256;SDS011;55069;51.568;4.656;2023-08-31T09:36:15;7.70;;;3.53;;
68256;SDS011;55069;51.568;4.656;2023-08-31T09:38:41;7.90;;;3.85;;
68256;SDS011;55069;51.568;4.656;2023-08-31T09:41:08;12.23;;;3.42;;
68256;SDS011;55069;51.568;4.656;2023-08-31T09:43:34;7.80;;;3.47;;
68256;SDS011;55069;51.568;4.656;2023-08-31T09:46:00;12.73;;;3.03;;
68256;SDS011;55069;51.568;4.656;2023-08-31T09:48:28;8.35;;;3.38;;
68256;SDS011;55069;51.568;4.656;2023-08-31T09:50:54;8.38;;;3.55;;
68256;SDS011;55069;51.568;4.656;2023-08-31T09:53:20;8.23;;;3.08;;
68256;SDS011;55069;51.568;4.656;2023-08-31T09:55:48;9.33;;;3.30;;
68256;SDS011;55069;51.568;4.656;2023-08-31T09:58:17;7.47;;;3.25;;
68256;SDS011;55069;51.568;4.656;2023-08-31T10:00:44;9.95;;;3.65;;
68256;SDS011;55069;51.568;4.656;2023-08-31T10:03:11;8.80;;;3.67;;
68256;SDS011;55069;51.568;4.656;2023-08-31T10:05:42;10.10;;;3.15;;
68256;SDS011;55069;51.568;4.656;2023-08-31T10:08:08;8.83;;;2.80;;
68256;SDS011;55069;51.568;4.656;2023-08-31T10:10:34;6.72;;;2.95;;
68256;SDS011;55069;51.568;4.656;2023-08-31T10:13:02;7.15;;;2.30;;
68256;SDS011;55069;51.568;4.656;2023-08-31T10:15:31;7.32;;;2.15;;
68256;SDS011;55069;51.568;4.656;2023-08-31T10:17:59;9.93;;;2.70;;
68256;SDS011;55069;51.568;4.656;2023-08-31T10:20:25;4.70;;;2.50;;
68256;SDS011;55069;51.568;4.656;2023-08-31T10:22:54;6.47;;;1.90;;
68256;SDS011;55069;51.568;4.656;2023-08-31T10:25:22;11.90;;;2.20;;
68256;SDS011;55069;51.568;4.656;2023-08-31T10:27:48;5.63;;;1.80;;
68256;SDS011;55069;51.568;4.656;2023-08-31T10:35:47;7.03;;;2.20;;
68256;SDS011;55069;51.568;4.656;2023-08-31T10:38:16;10.33;;;2.00;;
68256;SDS011;55069;51.568;4.656;2023-08-31T10:43:49;10.02;;;2.60;;
68256;SDS011;55069;51.568;4.656;2023-08-31T10:46:19;9.55;;;2.38;;
68256;SDS011;55069;51.568;4.656;2023-08-31T10:49:00;7.35;;;1.95;;
68256;SDS011;55069;51.568;4.656;2023-08-31T10:51:52;6.30;;;1.80;;
68256;SDS011;55069;51.568;4.656;2023-08-31T10:59:23;7.20;;;1.90;;
68256;SDS011;55069;51.568;4.656;2023-08-31T11:04:25;8.03;;;2.47;;
68256;SDS011;55069;51.568;4.656;2023-08-31T11:09:43;9.85;;;3.03;;
68256;SDS011;55069;51.568;4.656;2023-08-31T11:12:11;7.57;;;2.97;;
68256;SDS011;55069;51.568;4.656;2023-08-31T11:14:37;7.85;;;2.45;;
68256;SDS011;55069;51.568;4.656;2023-08-31T11:17:03;8.53;;;2.53;;
68256;SDS011;55069;51.568;4.656;2023-08-31T11:19:30;5.65;;;1.90;;
68256;SDS011;55069;51.568;4.656;2023-08-31T11:21:57;8.73;;;2.50;;
68256;SDS011;55069;51.568;4.656;2023-08-31T11:24:23;5.95;;;2.10;;
68256;SDS011;55069;51.568;4.656;2023-08-31T11:26:52;6.43;;;2.35;;
68256;SDS011;55069;51.568;4.656;2023-08-31T11:29:18;7.40;;;3.20;;
68256;SDS011;55069;51.568;4.656;2023-08-31T11:31:44;7.55;;;2.50;;
68256;SDS011;55069;51.568;4.656;2023-08-31T11:34:13;7.67;;;2.83;;
68256;SDS011;55069;51.568;4.656;2023-08-31T11:36:44;10.15;;;3.30;;
68256;SDS011;55069;51.568;4.656;2023-08-31T11:39:11;8.02;;;3.33;;
68256;SDS011;55069;51.568;4.656;2023-08-31T11:41:40;4.78;;;2.60;;
68256;SDS011;55069;51.568;4.656;2023-08-31T11:44:07;5.35;;;2.50;;
68256;SDS011;55069;51.568;4.656;2023-08-31T11:46:35;6.43;;;2.60;;
68256;SDS011;55069;51.568;4.656;2023-08-31T11:49:01;9.63;;;3.28;;
68256;SDS011;55069;51.568;4.656;2023-08-31T11:51:29;10.90;;;3.60;;
68256;SDS011;55069;51.568;4.656;2023-08-31T11:53:56;8.30;;;2.88;;
68256;SDS011;55069;51.568;4.656;2023-08-31T11:56:23;7.18;;;2.58;;
68256;SDS011;55069;51.568;4.656;2023-08-31T11:58:50;10.87;;;3.10;;
68256;SDS011;55069;51.568;4.656;2023-08-31T12:01:22;8.90;;;2.85;;
68256;SDS011;55069;51.568;4.656;2023-08-31T12:03:48;7.40;;;2.42;;
68256;SDS011;55069;51.568;4.656;2023-08-31T12:06:17;7.77;;;2.93;;
68256;SDS011;55069;51.568;4.656;2023-08-31T12:08:43;12.35;;;3.22;;
68256;SDS011;55069;51.568;4.656;2023-08-31T12:11:09;9.60;;;3.55;;
68256;SDS011;55069;51.568;4.656;2023-08-31T12:13:35;7.70;;;3.10;;
68256;SDS011;55069;51.568;4.656;2023-08-31T12:16:00;8.45;;;2.90;;
68256;SDS011;55069;51.568;4.656;2023-08-31T12:18:29;7.90;;;3.10;;
68256;SDS011;55069;51.568;4.656;2023-08-31T12:20:58;9.75;;;3.08;;
68256;SDS011;55069;51.568;4.656;2023-08-31T12:23:24;7.38;;;2.58;;
68256;SDS011;55069;51.568;4.656;2023-08-31T12:25:51;8.37;;;2.80;;
68256;SDS011;55069;51.568;4.656;2023-08-31T12:28:19;12.43;;;3.17;;
68256;SDS011;55069;51.568;4.656;2023-08-31T12:30:48;6.18;;;2.95;;
68256;SDS011;55069;51.568;4.656;2023-08-31T12:33:16;7.82;;;3.20;;
68256;SDS011;55069;51.568;4.656;2023-08-31T12:35:42;11.18;;;4.13;;
68256;SDS011;55069;51.568;4.656;2023-08-31T12:38:08;8.33;;;3.67;;
68256;SDS011;55069;51.568;4.656;2023-08-31T12:40:33;5.82;;;3.45;;
68256;SDS011;55069;51.568;4.656;2023-08-31T12:42:59;9.87;;;3.33;;
68256;SDS011;55069;51.568;4.656;2023-08-31T12:45:24;5.80;;;2.87;;
68256;SDS011;55069;51.568;4.656;2023-08-31T12:47:50;9.65;;;3.15;;
68256;SDS011;55069;51.568;4.656;2023-08-31T12:50:16;7.47;;;3.57;;
68256;SDS011;55069;51.568;4.656;2023-08-31T12:52:42;10.48;;;4.03;;
68256;SDS011;55069;51.568;4.656;2023-08-31T12:55:11;5.95;;;3.63;;
68256;SDS011;55069;51.568;4.656;2023-08-31T12:57:40;8.60;;;3.40;;
68256;SDS011;55069;51.568;4.656;2023-08-31T13:00:07;6.22;;;3.42;;
68256;SDS011;55069;51.568;4.656;2023-08-31T13:02:39;7.75;;;3.20;;
68256;SDS011;55069;51.568;4.656;2023-08-31T13:05:06;5.18;;;3.28;;
68256;SDS011;55069;51.568;4.656;2023-08-31T13:07:33;7.15;;;3.28;;
68256;SDS011;55069;51.568;4.656;2023-08-31T13:10:00;3.73;;;2.47;;
68256;SDS011;55069;51.568;4.656;2023-08-31T13:12:30;6.55;;;3.08;;
68256;SDS011;55069;51.568;4.656;2023-08-31T13:14:56;6.80;;;3.00;;
68256;SDS011;55069;51.568;4.656;2023-08-31T13:17:22;6.68;;;3.45;;
68256;SDS011;55069;51.568;4.656;2023-08-31T13:19:52;6.95;;;2.70;;
68256;SDS011;55069;51.568;4.656;2023-08-31T13:22:18;8.83;;;3.27;;
68256;SDS011;55069;51.568;4.656;2023-08-31T13:24:43;7.53;;;3.55;;
68256;SDS011;55069;51.568;4.656;2023-08-31T13:27:09;8.63;;;2.90;;
68256;SDS011;55069;51.568;4.656;2023-08-31T13:29:34;7.43;;;2.90;;
68256;SDS011;55069;51.568;4.656;2023-08-31T13:32:00;6.63;;;2.63;;
68256;SDS011;55069;51.568;4.656;2023-08-31T13:34:25;5.13;;;2.90;;
68256;SDS011;55069;51.568;4.656;2023-08-31T13:36:51;6.93;;;2.97;;
68256;SDS011;55069;51.568;4.656;2023-08-31T13:39:17;4.70;;;2.63;;
68256;SDS011;55069;51.568;4.656;2023-08-31T13:41:42;8.43;;;2.77;;
68256;SDS011;55069;51.568;4.656;2023-08-31T13:44:08;4.63;;;2.63;;
68256;SDS011;55069;51.568;4.656;2023-08-31T13:46:33;7.78;;;2.10;;
68256;SDS011;55069;51.568;4.656;2023-08-31T13:48:59;3.60;;;2.10;;
68256;SDS011;55069;51.568;4.656;2023-08-31T13:51:26;5.72;;;2.10;;
68256;SDS011;55069;51.568;4.656;2023-08-31T13:53:52;5.67;;;2.30;;
68256;SDS011;55069;51.568;4.656;2023-08-31T13:56:17;4.90;;;1.97;;
68256;SDS011;55069;51.568;4.656;2023-08-31T13:58:43;9.30;;;2.90;;
68256;SDS011;55069;51.568;4.656;2023-08-31T14:01:09;8.95;;;2.58;;
68256;SDS011;55069;51.568;4.656;2023-08-31T14:03:34;5.00;;;2.30;;
68256;SDS011;55069;51.568;4.656;2023-08-31T14:06:00;4.80;;;2.58;;
68256;SDS011;55069;51.568;4.656;2023-08-31T14:08:25;6.13;;;3.10;;
68256;SDS011;55069;51.568;4.656;2023-08-31T14:10:53;5.88;;;1.90;;
68256;SDS011;55069;51.568;4.656;2023-08-31T14:13:19;6.33;;;1.70;;
68256;SDS011;55069;51.568;4.656;2023-08-31T14:15:45;5.70;;;1.98;;
68256;SDS011;55069;51.568;4.656;2023-08-31T14:18:11;3.83;;;1.67;;
68256;SDS011;55069;51.568;4.656;2023-08-31T14:20:38;6.47;;;2.17;;
68256;SDS011;55069;51.568;4.656;2023-08-31T14:23:04;5.90;;;2.17;;
68256;SDS011;55069;51.568;4.656;2023-08-31T14:25:33;7.32;;;2.05;;
68256;SDS011;55069;51.568;4.656;2023-08-31T14:28:03;6.43;;;2.00;;
68256;SDS011;55069;51.568;4.656;2023-08-31T14:30:30;6.18;;;2.20;;
68256;SDS011;55069;51.568;4.656;2023-08-31T14:32:56;6.18;;;1.80;;
68256;SDS011;55069;51.568;4.656;2023-08-31T14:35:22;4.87;;;1.87;;
68256;SDS011;55069;51.568;4.656;2023-08-31T14:37:47;6.60;;;1.98;;
68256;SDS011;55069;51.568;4.656;2023-08-31T14:40:13;4.73;;;1.63;;
68256;SDS011;55069;51.568;4.656;2023-08-31T14:42:39;4.90;;;1.70;;
68256;SDS011;55069;51.568;4.656;2023-08-31T14:45:05;6.80;;;1.60;;
68256;SDS011;55069;51.568;4.656;2023-08-31T14:47:31;5.93;;;1.90;;
68256;SDS011;55069;51.568;4.656;2023-08-31T14:49:57;7.47;;;2.03;;
68256;SDS011;55069;51.568;4.656;2023-08-31T14:52:23;2.77;;;1.23;;
68256;SDS011;55069;51.568;4.656;2023-08-31T14:54:49;6.03;;;1.83;;
68256;SDS011;55069;51.568;4.656;2023-08-31T14:57:14;5.93;;;1.87;;
68256;SDS011;55069;51.568;4.656;2023-08-31T14:59:40;6.93;;;1.83;;